DLH7MB LSZH-LIBD
Flight info
| Callsign | DLH7MB |
|---|---|
| Flight time | 1h 29m |
| Altitude | 39000 |
| Route | DEGES Y170 ARGAX DCT RESIA DCT LOBSI DCT KEGED DCT ARSOB DCT AFCAM DCT BEFHE DCT EKMUR |
| Aircraft | A339/H-SADE1E2E3GHIJ3J5M1P2RWXY/LB2D1 |
Departure
| Time | 2026-05-04 14:15 |
|---|---|
| Airport | Zürich Airport (LSZH) |
Arrival
| Time | 2026-05-04 15:45 |
|---|---|
| Airport | Bari Karol Wojtyła International Airport (LIBD) |
| Time | Latitude | Longitude | Altitude | Speed | Heading |
|---|---|---|---|---|---|
| 2026-05-04 13:31 | 47.46175 | 8.55492 | 1405 ft | 0 kts | 186° |
| 2026-05-04 14:04 | 47.46222 | 8.55498 | 1406 ft | 4 kts | 191° |
| 2026-05-04 14:04 | 47.46243 | 8.55504 | 1408 ft | 4 kts | 233° |
| 2026-05-04 14:04 | 47.46253 | 8.55530 | 1412 ft | 4 kts | 274° |
| 2026-05-04 14:05 | 47.46251 | 8.55562 | 1411 ft | 0 kts | 276° |
| 2026-05-04 14:08 | 47.46251 | 8.55560 | 1411 ft | 1 kts | 276° |
| 2026-05-04 14:08 | 47.46255 | 8.55505 | 1407 ft | 8 kts | 276° |
| 2026-05-04 14:08 | 47.46263 | 8.55403 | 1402 ft | 12 kts | 276° |
| 2026-05-04 14:08 | 47.46273 | 8.55269 | 1400 ft | 15 kts | 276° |
| 2026-05-04 14:09 | 47.46299 | 8.54918 | 1401 ft | 14 kts | 276° |
| 2026-05-04 14:09 | 47.46312 | 8.54783 | 1401 ft | 14 kts | 288° |
| 2026-05-04 14:10 | 47.46458 | 8.54640 | 1403 ft | 15 kts | 336° |
| 2026-05-04 14:10 | 47.46596 | 8.54547 | 1402 ft | 18 kts | 335° |
| 2026-05-04 14:10 | 47.46675 | 8.54494 | 1398 ft | 20 kts | 335° |
| 2026-05-04 14:10 | 47.46816 | 8.54406 | 1386 ft | 24 kts | 339° |
| 2026-05-04 14:11 | 47.46969 | 8.54306 | 1389 ft | 24 kts | 335° |
| 2026-05-04 14:11 | 47.47283 | 8.54087 | 1399 ft | 26 kts | 335° |
| 2026-05-04 14:11 | 47.47444 | 8.53978 | 1402 ft | 25 kts | 335° |
| 2026-05-04 14:12 | 47.47590 | 8.53877 | 1408 ft | 22 kts | 335° |
| 2026-05-04 14:12 | 47.47675 | 8.53815 | 1411 ft | 11 kts | 328° |
| 2026-05-04 14:12 | 47.47697 | 8.53735 | 1414 ft | 0 kts | 267° |
| 2026-05-04 14:13 | 47.47697 | 8.53734 | 1410 ft | 1 kts | 266° |
| 2026-05-04 14:13 | 47.47641 | 8.53662 | 1411 ft | 15 kts | 207° |
| 2026-05-04 14:14 | 47.47531 | 8.53630 | 1412 ft | 17 kts | 170° |
| 2026-05-04 14:14 | 47.47409 | 8.53703 | 1403 ft | 45 kts | 156° |
| 2026-05-04 14:14 | 47.46836 | 8.54109 | 1384 ft | 134 kts | 155° |
| 2026-05-04 14:15 | 47.44686 | 8.55590 | 2556 ft | 177 kts | 155° |
| 2026-05-04 14:15 | 47.42333 | 8.57154 | 4141 ft | 199 kts | 157° |
| 2026-05-04 14:16 | 47.39589 | 8.58874 | 4923 ft | 226 kts | 156° |
| 2026-05-04 14:16 | 47.38138 | 8.59800 | 5007 ft | 230 kts | 156° |
| 2026-05-04 14:17 | 47.36182 | 8.63178 | 6469 ft | 229 kts | 95° |
| 2026-05-04 14:17 | 47.36565 | 8.65424 | 7231 ft | 237 kts | 59° |
| 2026-05-04 14:17 | 47.38863 | 8.69027 | 8792 ft | 245 kts | 44° |
| 2026-05-04 14:18 | 47.40136 | 8.70724 | 9593 ft | 248 kts | 43° |
| 2026-05-04 14:18 | 47.42745 | 8.74182 | 10963 ft | 256 kts | 43° |
| 2026-05-04 14:19 | 47.45378 | 8.77873 | 12055 ft | 272 kts | 54° |
| 2026-05-04 14:19 | 47.46299 | 8.80397 | 12274 ft | 290 kts | 73° |
| 2026-05-04 14:19 | 47.46575 | 8.83424 | 12471 ft | 308 kts | 95° |
| 2026-05-04 14:19 | 47.46209 | 8.86596 | 12652 ft | 326 kts | 105° |
| 2026-05-04 14:20 | 47.45672 | 8.89946 | 12856 ft | 345 kts | 105° |
| 2026-05-04 14:20 | 47.45120 | 8.93444 | 13384 ft | 352 kts | 104° |
| 2026-05-04 14:20 | 47.44588 | 8.96993 | 13973 ft | 356 kts | 104° |
| 2026-05-04 14:21 | 47.43539 | 9.04268 | 15071 ft | 364 kts | 104° |
| 2026-05-04 14:21 | 47.43013 | 9.07944 | 15627 ft | 368 kts | 104° |
| 2026-05-04 14:21 | 47.42479 | 9.11664 | 16154 ft | 372 kts | 104° |
| 2026-05-04 14:21 | 47.41735 | 9.15302 | 16677 ft | 371 kts | 118° |
| 2026-05-04 14:22 | 47.40292 | 9.18438 | 17208 ft | 369 kts | 136° |
| 2026-05-04 14:22 | 47.38269 | 9.20728 | 17806 ft | 365 kts | 155° |
| 2026-05-04 14:22 | 47.35890 | 9.21947 | 18403 ft | 361 kts | 171° |
| 2026-05-04 14:22 | 47.33398 | 9.22538 | 18861 ft | 365 kts | 174° |
| 2026-05-04 14:23 | 47.28369 | 9.23657 | 19806 ft | 371 kts | 173° |
| 2026-05-04 14:23 | 47.25818 | 9.24289 | 20367 ft | 372 kts | 172° |
| 2026-05-04 14:23 | 47.23251 | 9.24954 | 20871 ft | 375 kts | 172° |
| 2026-05-04 14:24 | 47.20668 | 9.25636 | 21338 ft | 379 kts | 172° |
| 2026-05-04 14:24 | 47.18068 | 9.26330 | 21890 ft | 381 kts | 172° |
| 2026-05-04 14:24 | 47.15454 | 9.27027 | 22396 ft | 384 kts | 172° |
| 2026-05-04 14:24 | 47.12809 | 9.27730 | 22939 ft | 387 kts | 172° |
| 2026-05-04 14:25 | 47.10147 | 9.28433 | 23511 ft | 389 kts | 172° |
| 2026-05-04 14:25 | 47.04906 | 9.30747 | 24351 ft | 401 kts | 155° |
| 2026-05-04 14:25 | 47.02546 | 9.32976 | 24816 ft | 408 kts | 145° |
| 2026-05-04 14:26 | 47.00422 | 9.35767 | 25237 ft | 413 kts | 141° |
| 2026-05-04 14:26 | 46.98316 | 9.38600 | 25711 ft | 415 kts | 141° |
| 2026-05-04 14:26 | 46.96173 | 9.41452 | 26157 ft | 418 kts | 141° |
| 2026-05-04 14:26 | 46.94004 | 9.44316 | 26609 ft | 421 kts | 141° |
| 2026-05-04 14:27 | 46.91814 | 9.47195 | 26971 ft | 425 kts | 141° |
| 2026-05-04 14:27 | 46.89606 | 9.50093 | 27439 ft | 427 kts | 141° |
| 2026-05-04 14:27 | 46.87397 | 9.52990 | 27903 ft | 429 kts | 141° |
| 2026-05-04 14:27 | 46.85164 | 9.55914 | 28294 ft | 432 kts | 141° |
| 2026-05-04 14:28 | 46.82945 | 9.58818 | 28701 ft | 435 kts | 141° |
| 2026-05-04 14:28 | 46.80686 | 9.61771 | 29184 ft | 436 kts | 141° |
| 2026-05-04 14:28 | 46.78413 | 9.64739 | 29582 ft | 439 kts | 141° |
| 2026-05-04 14:28 | 46.76134 | 9.67713 | 30000 ft | 441 kts | 141° |
| 2026-05-04 14:29 | 46.71520 | 9.73720 | 30717 ft | 446 kts | 141° |
| 2026-05-04 14:29 | 46.66880 | 9.79742 | 31435 ft | 451 kts | 141° |
| 2026-05-04 14:30 | 46.64533 | 9.82785 | 31746 ft | 455 kts | 141° |
| 2026-05-04 14:30 | 46.62158 | 9.85860 | 32053 ft | 457 kts | 141° |
| 2026-05-04 14:30 | 46.57368 | 9.92051 | 32637 ft | 463 kts | 141° |
| 2026-05-04 14:31 | 46.54948 | 9.95170 | 32855 ft | 466 kts | 141° |
| 2026-05-04 14:31 | 46.50076 | 10.01449 | 33254 ft | 470 kts | 142° |
| 2026-05-04 14:32 | 46.45205 | 10.07838 | 33620 ft | 474 kts | 139° |
| 2026-05-04 14:32 | 46.42874 | 10.11141 | 33830 ft | 474 kts | 138° |
| 2026-05-04 14:32 | 46.40508 | 10.14535 | 34085 ft | 473 kts | 138° |
| 2026-05-04 14:32 | 46.38192 | 10.17841 | 34282 ft | 473 kts | 138° |
| 2026-05-04 14:33 | 46.35805 | 10.21221 | 34476 ft | 473 kts | 139° |
| 2026-05-04 14:33 | 46.33481 | 10.24488 | 34671 ft | 473 kts | 139° |
| 2026-05-04 14:33 | 46.31116 | 10.27800 | 34880 ft | 473 kts | 139° |
| 2026-05-04 14:33 | 46.28747 | 10.31108 | 35055 ft | 473 kts | 139° |
| 2026-05-04 14:34 | 46.26378 | 10.34412 | 35251 ft | 473 kts | 139° |
| 2026-05-04 14:34 | 46.24013 | 10.37705 | 35435 ft | 473 kts | 139° |
| 2026-05-04 14:34 | 46.21641 | 10.41004 | 35624 ft | 473 kts | 139° |
| 2026-05-04 14:34 | 46.19269 | 10.44299 | 35862 ft | 471 kts | 139° |
| 2026-05-04 14:35 | 46.16907 | 10.47577 | 36037 ft | 472 kts | 139° |
| 2026-05-04 14:35 | 46.14537 | 10.50863 | 36218 ft | 471 kts | 139° |
| 2026-05-04 14:35 | 46.12196 | 10.54102 | 36390 ft | 472 kts | 139° |
| 2026-05-04 14:35 | 46.09823 | 10.57382 | 36599 ft | 471 kts | 139° |
| 2026-05-04 14:36 | 46.07455 | 10.60651 | 36757 ft | 472 kts | 139° |
| 2026-05-04 14:36 | 46.05083 | 10.63922 | 36884 ft | 473 kts | 139° |
| 2026-05-04 14:36 | 46.02702 | 10.67201 | 37054 ft | 474 kts | 140° |
| 2026-05-04 14:36 | 46.00322 | 10.70474 | 37252 ft | 473 kts | 140° |
| 2026-05-04 14:37 | 45.97943 | 10.73743 | 37418 ft | 473 kts | 140° |
| 2026-05-04 14:37 | 45.95554 | 10.77019 | 37575 ft | 474 kts | 140° |
| 2026-05-04 14:37 | 45.93198 | 10.80250 | 37744 ft | 474 kts | 140° |
| 2026-05-04 14:37 | 45.90813 | 10.83512 | 37938 ft | 473 kts | 140° |
| 2026-05-04 14:38 | 45.88431 | 10.86770 | 38039 ft | 474 kts | 140° |
| 2026-05-04 14:38 | 45.86037 | 10.90038 | 38222 ft | 475 kts | 140° |
| 2026-05-04 14:38 | 45.83640 | 10.93306 | 38322 ft | 475 kts | 140° |
| 2026-05-04 14:38 | 45.81242 | 10.96571 | 38423 ft | 477 kts | 140° |
| 2026-05-04 14:39 | 45.78834 | 10.99846 | 38612 ft | 477 kts | 140° |
| 2026-05-04 14:39 | 45.76425 | 11.03119 | 38772 ft | 477 kts | 140° |
| 2026-05-04 14:39 | 45.74014 | 11.06390 | 38897 ft | 477 kts | 140° |
| 2026-05-04 14:40 | 45.69213 | 11.12888 | 39062 ft | 478 kts | 140° |
| 2026-05-04 14:40 | 45.66807 | 11.16141 | 39066 ft | 477 kts | 140° |
| 2026-05-04 14:40 | 45.61973 | 11.22661 | 39058 ft | 477 kts | 140° |
| 2026-05-04 14:41 | 45.57133 | 11.29175 | 39058 ft | 479 kts | 140° |
| 2026-05-04 14:42 | 45.47457 | 11.42154 | 39050 ft | 478 kts | 140° |
| 2026-05-04 14:42 | 45.42595 | 11.48647 | 39050 ft | 479 kts | 140° |
| 2026-05-04 14:43 | 45.37726 | 11.55135 | 39043 ft | 479 kts | 140° |
| 2026-05-04 14:43 | 45.32846 | 11.61620 | 39047 ft | 480 kts | 140° |
| 2026-05-04 14:44 | 45.27991 | 11.68057 | 39058 ft | 480 kts | 140° |
| 2026-05-04 14:44 | 45.23085 | 11.74546 | 39055 ft | 480 kts | 140° |
| 2026-05-04 14:45 | 45.18198 | 11.80993 | 39062 ft | 480 kts | 140° |
| 2026-05-04 14:45 | 45.13307 | 11.87431 | 39049 ft | 480 kts | 140° |
| 2026-05-04 14:46 | 45.08432 | 11.93832 | 39052 ft | 481 kts | 140° |
| 2026-05-04 14:46 | 45.03514 | 12.00273 | 39054 ft | 482 kts | 140° |
| 2026-05-04 14:47 | 44.98586 | 12.06711 | 39062 ft | 482 kts | 140° |
| 2026-05-04 14:47 | 44.93659 | 12.13135 | 39067 ft | 482 kts | 140° |
| 2026-05-04 14:48 | 44.88709 | 12.19575 | 39059 ft | 483 kts | 140° |
| 2026-05-04 14:48 | 44.83761 | 12.25965 | 39064 ft | 483 kts | 140° |
| 2026-05-04 14:49 | 44.78786 | 12.32383 | 39071 ft | 484 kts | 140° |
| 2026-05-04 14:49 | 44.73844 | 12.38746 | 39074 ft | 485 kts | 141° |
| 2026-05-04 14:50 | 44.68861 | 12.45147 | 39066 ft | 485 kts | 141° |
| 2026-05-04 14:50 | 44.63865 | 12.51547 | 39069 ft | 486 kts | 141° |
| 2026-05-04 14:51 | 44.58896 | 12.57897 | 39080 ft | 486 kts | 141° |
| 2026-05-04 14:51 | 44.53860 | 12.64317 | 39076 ft | 486 kts | 141° |
| 2026-05-04 14:52 | 44.48871 | 12.70662 | 39094 ft | 486 kts | 141° |
| 2026-05-04 14:52 | 44.43849 | 12.77034 | 39062 ft | 487 kts | 141° |
| 2026-05-04 14:53 | 44.38821 | 12.83398 | 39056 ft | 488 kts | 141° |
| 2026-05-04 14:53 | 44.33787 | 12.89754 | 39074 ft | 488 kts | 141° |
| 2026-05-04 14:54 | 44.28730 | 12.96124 | 39080 ft | 488 kts | 141° |
| 2026-05-04 14:54 | 44.23714 | 13.02426 | 39065 ft | 489 kts | 141° |
| 2026-05-04 14:55 | 44.18656 | 13.08767 | 39073 ft | 490 kts | 141° |
| 2026-05-04 14:55 | 44.13575 | 13.15120 | 39055 ft | 490 kts | 141° |
| 2026-05-04 14:56 | 44.08492 | 13.21460 | 39074 ft | 491 kts | 141° |
| 2026-05-04 14:56 | 44.03398 | 13.27800 | 39073 ft | 491 kts | 141° |
| 2026-05-04 14:57 | 43.98305 | 13.34123 | 39077 ft | 492 kts | 141° |
| 2026-05-04 14:57 | 43.93263 | 13.40464 | 39080 ft | 492 kts | 139° |
| 2026-05-04 14:58 | 43.88296 | 13.47024 | 39079 ft | 492 kts | 139° |
| 2026-05-04 14:58 | 43.84128 | 13.52517 | 39073 ft | 493 kts | 139° |
| 2026-05-04 14:59 | 43.78326 | 13.60107 | 39067 ft | 494 kts | 139° |
| 2026-05-04 15:00 | 43.71662 | 13.68773 | 39071 ft | 495 kts | 139° |
| 2026-05-04 15:00 | 43.66636 | 13.75290 | 39078 ft | 495 kts | 139° |
| 2026-05-04 15:01 | 43.59098 | 13.85035 | 39081 ft | 495 kts | 139° |
| 2026-05-04 15:01 | 43.54053 | 13.91537 | 39067 ft | 496 kts | 139° |
| 2026-05-04 15:02 | 43.49001 | 13.98034 | 39072 ft | 497 kts | 139° |
| 2026-05-04 15:02 | 43.43972 | 14.04485 | 39076 ft | 498 kts | 139° |
| 2026-05-04 15:03 | 43.38889 | 14.10991 | 39078 ft | 498 kts | 139° |
| 2026-05-04 15:03 | 43.33816 | 14.17467 | 39072 ft | 498 kts | 140° |
| 2026-05-04 15:04 | 43.28727 | 14.23946 | 39073 ft | 499 kts | 139° |
| 2026-05-04 15:04 | 43.23660 | 14.30384 | 39075 ft | 499 kts | 139° |
| 2026-05-04 15:05 | 43.18551 | 14.36862 | 39083 ft | 500 kts | 139° |
| 2026-05-04 15:05 | 43.13436 | 14.43331 | 39082 ft | 500 kts | 139° |
| 2026-05-04 15:06 | 43.08315 | 14.49792 | 39074 ft | 500 kts | 140° |
| 2026-05-04 15:07 | 43.00612 | 14.59480 | 39082 ft | 501 kts | 140° |
| 2026-05-04 15:07 | 42.95499 | 14.65891 | 39084 ft | 501 kts | 140° |
| 2026-05-04 15:08 | 42.90358 | 14.72324 | 39079 ft | 501 kts | 140° |
| 2026-05-04 15:08 | 42.85211 | 14.78748 | 39067 ft | 502 kts | 140° |
| 2026-05-04 15:09 | 42.80044 | 14.85181 | 39073 ft | 503 kts | 140° |
| 2026-05-04 15:09 | 42.74899 | 14.91573 | 39077 ft | 504 kts | 140° |
| 2026-05-04 15:10 | 42.67125 | 15.01200 | 39084 ft | 505 kts | 140° |
| 2026-05-04 15:11 | 42.59316 | 15.10839 | 39086 ft | 506 kts | 140° |
| 2026-05-04 15:11 | 42.54097 | 15.17262 | 39089 ft | 506 kts | 140° |
| 2026-05-04 15:12 | 42.48896 | 15.23647 | 39097 ft | 507 kts | 140° |
| 2026-05-04 15:12 | 42.43668 | 15.30049 | 39102 ft | 507 kts | 140° |
| 2026-05-04 15:13 | 42.38427 | 15.36451 | 39093 ft | 507 kts | 140° |
| 2026-05-04 15:13 | 42.33183 | 15.42845 | 39095 ft | 508 kts | 140° |
| 2026-05-04 15:14 | 42.27922 | 15.49244 | 39100 ft | 508 kts | 140° |
| 2026-05-04 15:14 | 42.22665 | 15.55623 | 39100 ft | 509 kts | 140° |
| 2026-05-04 15:15 | 42.17397 | 15.62000 | 39110 ft | 509 kts | 140° |
| 2026-05-04 15:15 | 42.12151 | 15.68333 | 39006 ft | 509 kts | 140° |
| 2026-05-04 15:16 | 42.06890 | 15.74672 | 38115 ft | 504 kts | 140° |
| 2026-05-04 15:16 | 42.04289 | 15.77801 | 37335 ft | 498 kts | 139° |
| 2026-05-04 15:16 | 41.99134 | 15.83988 | 35692 ft | 495 kts | 139° |
| 2026-05-04 15:17 | 41.96573 | 15.87058 | 34995 ft | 492 kts | 139° |
| 2026-05-04 15:17 | 41.91479 | 15.93153 | 33473 ft | 488 kts | 139° |
| 2026-05-04 15:17 | 41.88945 | 15.96181 | 32417 ft | 490 kts | 139° |
| 2026-05-04 15:18 | 41.86384 | 15.99237 | 31372 ft | 493 kts | 139° |
| 2026-05-04 15:18 | 41.83819 | 16.02293 | 30499 ft | 491 kts | 139° |
| 2026-05-04 15:18 | 41.81281 | 16.05316 | 29399 ft | 484 kts | 139° |
| 2026-05-04 15:19 | 41.76341 | 16.11191 | 27318 ft | 469 kts | 139° |
| 2026-05-04 15:19 | 41.73901 | 16.14087 | 26323 ft | 464 kts | 139° |
| 2026-05-04 15:19 | 41.69129 | 16.19741 | 25066 ft | 455 kts | 139° |
| 2026-05-04 15:20 | 41.66764 | 16.22539 | 24407 ft | 451 kts | 139° |
| 2026-05-04 15:20 | 41.64418 | 16.25312 | 23766 ft | 448 kts | 139° |
| 2026-05-04 15:20 | 41.62092 | 16.28059 | 23071 ft | 443 kts | 139° |
| 2026-05-04 15:20 | 41.59807 | 16.30754 | 22414 ft | 436 kts | 139° |
| 2026-05-04 15:21 | 41.57550 | 16.33414 | 21889 ft | 428 kts | 139° |
| 2026-05-04 15:21 | 41.55332 | 16.36024 | 21295 ft | 422 kts | 139° |
| 2026-05-04 15:21 | 41.50981 | 16.41139 | 20021 ft | 410 kts | 139° |
| 2026-05-04 15:22 | 41.48888 | 16.43598 | 19489 ft | 402 kts | 139° |
| 2026-05-04 15:22 | 41.46800 | 16.46051 | 18890 ft | 396 kts | 139° |
| 2026-05-04 15:22 | 41.42679 | 16.50758 | 17687 ft | 382 kts | 143° |
| 2026-05-04 15:23 | 41.40458 | 16.52642 | 17111 ft | 374 kts | 152° |
| 2026-05-04 15:23 | 41.38113 | 16.54068 | 16520 ft | 367 kts | 160° |
| 2026-05-04 15:23 | 41.35739 | 16.55213 | 15985 ft | 360 kts | 160° |
| 2026-05-04 15:23 | 41.33378 | 16.56379 | 15524 ft | 365 kts | 160° |
| 2026-05-04 15:24 | 41.28742 | 16.58709 | 15318 ft | 344 kts | 159° |
| 2026-05-04 15:24 | 41.24495 | 16.60850 | 15021 ft | 312 kts | 159° |
| 2026-05-04 15:25 | 41.22496 | 16.61854 | 14709 ft | 302 kts | 159° |
| 2026-05-04 15:25 | 41.20552 | 16.62828 | 14416 ft | 293 kts | 159° |
| 2026-05-04 15:25 | 41.18655 | 16.63775 | 14178 ft | 293 kts | 159° |
| 2026-05-04 15:26 | 41.14839 | 16.65671 | 13546 ft | 293 kts | 159° |
| 2026-05-04 15:26 | 41.12930 | 16.66620 | 13154 ft | 286 kts | 159° |
| 2026-05-04 15:26 | 41.09304 | 16.68420 | 12433 ft | 270 kts | 159° |
| 2026-05-04 15:27 | 41.07565 | 16.69284 | 12085 ft | 263 kts | 159° |
| 2026-05-04 15:27 | 41.04088 | 16.70651 | 11404 ft | 289 kts | 180° |
| 2026-05-04 15:28 | 41.00385 | 16.68517 | 11330 ft | 295 kts | 229° |
| 2026-05-04 15:28 | 40.99379 | 16.66253 | 11245 ft | 281 kts | 253° |
| 2026-05-04 15:28 | 40.98598 | 16.61317 | 10631 ft | 266 kts | 259° |
| 2026-05-04 15:29 | 40.98156 | 16.58889 | 10603 ft | 273 kts | 256° |
| 2026-05-04 15:30 | 40.95686 | 16.49730 | 10188 ft | 249 kts | 251° |
| 2026-05-04 15:30 | 40.93845 | 16.43339 | 10082 ft | 247 kts | 250° |
| 2026-05-04 15:31 | 40.92622 | 16.39093 | 9934 ft | 247 kts | 251° |
| 2026-05-04 15:31 | 40.92009 | 16.36963 | 9866 ft | 246 kts | 250° |
| 2026-05-04 15:32 | 40.90197 | 16.30675 | 9645 ft | 243 kts | 250° |
| 2026-05-04 15:32 | 40.89000 | 16.26541 | 9502 ft | 242 kts | 249° |
| 2026-05-04 15:33 | 40.88135 | 16.22294 | 9371 ft | 239 kts | 276° |
| 2026-05-04 15:34 | 40.91476 | 16.18029 | 9169 ft | 241 kts | 343° |
| 2026-05-04 15:34 | 40.93086 | 16.17425 | 9100 ft | 240 kts | 343° |
| 2026-05-04 15:34 | 40.96343 | 16.17030 | 8963 ft | 239 kts | 20° |
| 2026-05-04 15:35 | 40.98450 | 16.20181 | 8882 ft | 238 kts | 72° |
| 2026-05-04 15:35 | 40.98857 | 16.22320 | 8829 ft | 240 kts | 78° |
| 2026-05-04 15:35 | 40.99265 | 16.24465 | 8773 ft | 240 kts | 73° |
| 2026-05-04 15:36 | 41.00385 | 16.28561 | 8130 ft | 236 kts | 69° |
| 2026-05-04 15:36 | 41.00965 | 16.30592 | 7620 ft | 236 kts | 69° |
| 2026-05-04 15:36 | 41.01546 | 16.32640 | 7103 ft | 238 kts | 70° |
| 2026-05-04 15:37 | 41.02126 | 16.34680 | 6618 ft | 237 kts | 70° |
| 2026-05-04 15:37 | 41.02700 | 16.36701 | 6210 ft | 229 kts | 69° |
| 2026-05-04 15:37 | 41.03243 | 16.38614 | 5841 ft | 215 kts | 69° |
| 2026-05-04 15:37 | 41.03753 | 16.40414 | 5516 ft | 203 kts | 69° |
| 2026-05-04 15:38 | 41.04233 | 16.42106 | 5231 ft | 190 kts | 69° |
| 2026-05-04 15:38 | 41.04680 | 16.43677 | 4977 ft | 174 kts | 69° |
| 2026-05-04 15:38 | 41.05085 | 16.45108 | 4738 ft | 158 kts | 68° |
| 2026-05-04 15:38 | 41.05460 | 16.46426 | 4533 ft | 156 kts | 68° |
| 2026-05-04 15:39 | 41.05838 | 16.47758 | 4322 ft | 150 kts | 68° |
| 2026-05-04 15:39 | 41.06214 | 16.49087 | 4122 ft | 156 kts | 68° |
| 2026-05-04 15:39 | 41.06959 | 16.51712 | 3718 ft | 148 kts | 68° |
| 2026-05-04 15:40 | 41.07323 | 16.52999 | 3532 ft | 154 kts | 68° |
| 2026-05-04 15:40 | 41.07687 | 16.54283 | 3320 ft | 145 kts | 68° |
| 2026-05-04 15:40 | 41.08051 | 16.55565 | 3128 ft | 150 kts | 68° |
| 2026-05-04 15:40 | 41.08409 | 16.56834 | 2938 ft | 148 kts | 68° |
| 2026-05-04 15:41 | 41.08769 | 16.58102 | 2729 ft | 142 kts | 68° |
| 2026-05-04 15:41 | 41.09125 | 16.59359 | 2529 ft | 147 kts | 68° |
| 2026-05-04 15:41 | 41.09475 | 16.60601 | 2343 ft | 144 kts | 68° |
| 2026-05-04 15:41 | 41.09830 | 16.61848 | 2143 ft | 140 kts | 69° |
| 2026-05-04 15:42 | 41.10167 | 16.63037 | 1962 ft | 139 kts | 70° |
| 2026-05-04 15:42 | 41.10517 | 16.64273 | 1780 ft | 141 kts | 70° |
| 2026-05-04 15:42 | 41.10843 | 16.65435 | 1592 ft | 138 kts | 70° |
| 2026-05-04 15:42 | 41.11186 | 16.66645 | 1401 ft | 138 kts | 70° |
| 2026-05-04 15:43 | 41.11517 | 16.67813 | 1199 ft | 135 kts | 70° |
| 2026-05-04 15:43 | 41.11844 | 16.68961 | 1052 ft | 130 kts | 70° |
| 2026-05-04 15:43 | 41.12175 | 16.70156 | 941 ft | 142 kts | 71° |
| 2026-05-04 15:43 | 41.12518 | 16.71375 | 656 ft | 139 kts | 71° |
| 2026-05-04 15:44 | 41.12859 | 16.72536 | 456 ft | 129 kts | 69° |
| 2026-05-04 15:44 | 41.13174 | 16.73662 | 346 ft | 130 kts | 71° |
| 2026-05-04 15:44 | 41.13491 | 16.74782 | 191 ft | 127 kts | 72° |
| 2026-05-04 15:44 | 41.13752 | 16.75706 | 158 ft | 78 kts | 68° |
| 2026-05-04 15:45 | 41.13875 | 16.76135 | 143 ft | 25 kts | 69° |
| 2026-05-04 15:45 | 41.13981 | 16.76502 | 126 ft | 22 kts | 69° |
| 2026-05-04 15:45 | 41.13975 | 16.76692 | 122 ft | 19 kts | 130° |
| 2026-05-04 15:45 | 41.13905 | 16.76691 | 124 ft | 0 kts | 207° |
| 2026-05-04 15:47 | 41.13905 | 16.76690 | 124 ft | 0 kts | 207° |
| 2026-05-04 15:47 | 41.13863 | 16.76654 | 123 ft | 13 kts | 217° |
| 2026-05-04 15:47 | 41.13796 | 16.76584 | 122 ft | 12 kts | 204° |
| 2026-05-04 15:48 | 41.13706 | 16.76550 | 135 ft | 15 kts | 195° |
| 2026-05-04 15:48 | 41.13639 | 16.76464 | 140 ft | 13 kts | 244° |
| 2026-05-04 15:48 | 41.13595 | 16.76396 | 145 ft | 7 kts | 214° |
| 2026-05-04 15:49 | 41.13570 | 16.76381 | 146 ft | 5 kts | 198° |
| 2026-05-04 15:49 | 41.13557 | 16.76389 | 147 ft | 0 kts | 162° |
| 2026-05-04 15:49 | 41.13556 | 16.76390 | 147 ft | 0 kts | 156° |
| 2026-05-04 15:49 | 41.13550 | 16.76393 | 147 ft | 0 kts | 159° |